sensor_id;sensor_type;location;lat;lon;timestamp;pressure;altitude;pressure_sealevel;temperature;humidity
31911;BME280;18457;52.432;16.914;2023-05-24T00:00:45;100230.00;;;16.24;100.00
31911;BME280;18457;52.432;16.914;2023-05-24T00:03:29;100229.29;;;16.27;100.00
31911;BME280;18457;52.432;16.914;2023-05-24T00:06:05;100225.94;;;16.22;100.00
31911;BME280;18457;52.432;16.914;2023-05-24T00:08:37;100230.09;;;16.18;100.00
31911;BME280;18457;52.432;16.914;2023-05-24T00:11:08;100226.69;;;16.14;100.00
31911;BME280;18457;52.432;16.914;2023-05-24T00:13:40;100226.81;;;16.11;100.00
31911;BME280;18457;52.432;16.914;2023-05-24T00:16:12;100223.89;;;16.00;100.00
31911;BME280;18457;52.432;16.914;2023-05-24T00:18:44;100230.00;;;15.88;100.00
31911;BME280;18457;52.432;16.914;2023-05-24T00:21:16;100232.17;;;15.88;100.00
31911;BME280;18457;52.432;16.914;2023-05-24T00:23:48;100233.70;;;15.87;100.00
31911;BME280;18457;52.432;16.914;2023-05-24T00:26:21;100236.80;;;15.83;100.00
31911;BME280;18457;52.432;16.914;2023-05-24T00:28:56;100243.16;;;15.79;100.00
31911;BME280;18457;52.432;16.914;2023-05-24T00:31:27;100241.70;;;15.68;99.90
31911;BME280;18457;52.432;16.914;2023-05-24T00:33:59;100244.10;;;15.60;99.33
31911;BME280;18457;52.432;16.914;2023-05-24T00:36:31;100243.21;;;15.47;98.12
31911;BME280;18457;52.432;16.914;2023-05-24T00:39:03;100247.77;;;15.44;98.11
31911;BME280;18457;52.432;16.914;2023-05-24T00:41:36;100247.84;;;15.34;98.12
31911;BME280;18457;52.432;16.914;2023-05-24T00:44:08;100249.88;;;15.37;97.58
31911;BME280;18457;52.432;16.914;2023-05-24T00:46:41;100260.52;;;15.35;97.03
31911;BME280;18457;52.432;16.914;2023-05-24T00:49:13;100263.12;;;15.26;96.54
31911;BME280;18457;52.432;16.914;2023-05-24T00:51:45;100272.02;;;15.23;96.78
31911;BME280;18457;52.432;16.914;2023-05-24T00:54:16;100272.48;;;15.08;96.93
31911;BME280;18457;52.432;16.914;2023-05-24T00:56:49;100285.42;;;15.08;96.94
31911;BME280;18457;52.432;16.914;2023-05-24T00:59:21;100283.52;;;14.93;96.58
31911;BME280;18457;52.432;16.914;2023-05-24T01:01:53;100284.16;;;14.78;96.60
31911;BME280;18457;52.432;16.914;2023-05-24T01:04:26;100287.69;;;14.72;96.98
31911;BME280;18457;52.432;16.914;2023-05-24T01:07:08;100291.50;;;14.64;96.72
31911;BME280;18457;52.432;16.914;2023-05-24T01:09:52;100289.77;;;14.66;96.71
31911;BME280;18457;52.432;16.914;2023-05-24T01:12:30;100295.09;;;14.65;96.32
31911;BME280;18457;52.432;16.914;2023-05-24T01:15:10;100295.24;;;14.58;96.88
31911;BME280;18457;52.432;16.914;2023-05-24T01:17:56;100296.54;;;14.61;96.55
31911;BME280;18457;52.432;16.914;2023-05-24T01:20:33;100303.30;;;14.61;96.32
31911;BME280;18457;52.432;16.914;2023-05-24T01:23:31;100306.61;;;14.51;96.66
31911;BME280;18457;52.432;16.914;2023-05-24T01:26:35;100307.73;;;14.42;97.19
31911;BME280;18457;52.432;16.914;2023-05-24T01:29:09;100308.86;;;14.37;97.64
31911;BME280;18457;52.432;16.914;2023-05-24T01:31:40;100307.98;;;14.36;97.79
31911;BME280;18457;52.432;16.914;2023-05-24T01:34:13;100306.33;;;14.36;97.87
31911;BME280;18457;52.432;16.914;2023-05-24T01:36:45;100310.17;;;14.36;98.03
31911;BME280;18457;52.432;16.914;2023-05-24T01:39:17;100310.56;;;14.43;97.73
31911;BME280;18457;52.432;16.914;2023-05-24T01:41:55;100313.69;;;14.47;97.15
31911;BME280;18457;52.432;16.914;2023-05-24T01:44:35;100312.48;;;14.37;97.35
31911;BME280;18457;52.432;16.914;2023-05-24T01:47:17;100314.63;;;14.38;97.14
31911;BME280;18457;52.432;16.914;2023-05-24T01:49:56;100320.26;;;14.34;97.53
31911;BME280;18457;52.432;16.914;2023-05-24T01:52:32;100318.73;;;14.35;97.29
31911;BME280;18457;52.432;16.914;2023-05-24T01:55:08;100318.94;;;14.39;97.12
31911;BME280;18457;52.432;16.914;2023-05-24T01:57:42;100321.48;;;14.30;97.64
31911;BME280;18457;52.432;16.914;2023-05-24T02:00:17;100325.45;;;14.31;97.69
31911;BME280;18457;52.432;16.914;2023-05-24T02:02:50;100324.77;;;14.34;97.41
31911;BME280;18457;52.432;16.914;2023-05-24T02:05:22;100327.42;;;14.31;97.44
31911;BME280;18457;52.432;16.914;2023-05-24T02:07:54;100339.13;;;14.29;97.49
31911;BME280;18457;52.432;16.914;2023-05-24T02:10:26;100337.97;;;14.26;98.01
31911;BME280;18457;52.432;16.914;2023-05-24T02:12:58;100341.04;;;14.27;97.80
31911;BME280;18457;52.432;16.914;2023-05-24T02:15:30;100339.61;;;14.40;96.96
31911;BME280;18457;52.432;16.914;2023-05-24T02:18:02;100339.77;;;14.37;96.77
31911;BME280;18457;52.432;16.914;2023-05-24T02:20:37;100339.39;;;14.37;96.96
31911;BME280;18457;52.432;16.914;2023-05-24T02:23:10;100338.91;;;14.30;97.22
31911;BME280;18457;52.432;16.914;2023-05-24T02:25:42;100342.95;;;14.34;96.98
31911;BME280;18457;52.432;16.914;2023-05-24T02:28:14;100347.45;;;14.35;96.92
31911;BME280;18457;52.432;16.914;2023-05-24T02:30:46;100347.99;;;14.30;97.45
31911;BME280;18457;52.432;16.914;2023-05-24T02:33:18;100347.30;;;14.39;97.31
31911;BME280;18457;52.432;16.914;2023-05-24T02:35:50;100345.21;;;14.41;97.27
31911;BME280;18457;52.432;16.914;2023-05-24T02:38:22;100341.84;;;14.39;97.24
31911;BME280;18457;52.432;16.914;2023-05-24T02:40:54;100344.48;;;14.37;97.21
31911;BME280;18457;52.432;16.914;2023-05-24T02:43:25;100345.90;;;14.33;97.77
31911;BME280;18457;52.432;16.914;2023-05-24T02:45:58;100354.42;;;14.33;98.01
31911;BME280;18457;52.432;16.914;2023-05-24T02:48:29;100351.22;;;14.32;98.23
31911;BME280;18457;52.432;16.914;2023-05-24T02:51:01;100353.16;;;14.33;98.28
31911;BME280;18457;52.432;16.914;2023-05-24T02:53:34;100354.15;;;14.36;98.14
31911;BME280;18457;52.432;16.914;2023-05-24T02:56:06;100356.98;;;14.29;98.41
31911;BME280;18457;52.432;16.914;2023-05-24T02:58:39;100359.89;;;14.23;98.38
31911;BME280;18457;52.432;16.914;2023-05-24T03:01:11;100361.46;;;14.25;98.50
31911;BME280;18457;52.432;16.914;2023-05-24T03:03:43;100361.89;;;14.23;98.51
31911;BME280;18457;52.432;16.914;2023-05-24T03:06:15;100362.84;;;14.22;98.93
31911;BME280;18457;52.432;16.914;2023-05-24T03:08:48;100370.93;;;14.25;98.67
31911;BME280;18457;52.432;16.914;2023-05-24T03:11:20;100367.90;;;14.18;98.49
31911;BME280;18457;52.432;16.914;2023-05-24T03:13:53;100369.27;;;14.11;98.56
31911;BME280;18457;52.432;16.914;2023-05-24T03:16:25;100378.20;;;14.11;98.53
31911;BME280;18457;52.432;16.914;2023-05-24T03:18:57;100377.76;;;14.12;98.30
31911;BME280;18457;52.432;16.914;2023-05-24T03:21:30;100381.81;;;14.11;98.76
31911;BME280;18457;52.432;16.914;2023-05-24T03:24:02;100384.02;;;14.11;99.11
31911;BME280;18457;52.432;16.914;2023-05-24T03:26:35;100391.77;;;14.17;99.43
31911;BME280;18457;52.432;16.914;2023-05-24T03:29:07;100396.29;;;14.13;99.83
31911;BME280;18457;52.432;16.914;2023-05-24T03:31:42;100396.98;;;13.94;100.00
31911;BME280;18457;52.432;16.914;2023-05-24T03:34:14;100397.30;;;13.82;100.00
31911;BME280;18457;52.432;16.914;2023-05-24T03:36:46;100399.39;;;13.74;100.00
31911;BME280;18457;52.432;16.914;2023-05-24T03:39:18;100403.26;;;13.58;100.00
31911;BME280;18457;52.432;16.914;2023-05-24T03:41:57;100403.64;;;13.43;100.00
31911;BME280;18457;52.432;16.914;2023-05-24T03:44:28;100400.86;;;13.39;100.00
31911;BME280;18457;52.432;16.914;2023-05-24T03:47:02;100409.73;;;13.30;100.00
31911;BME280;18457;52.432;16.914;2023-05-24T03:49:34;100403.83;;;13.27;100.00
31911;BME280;18457;52.432;16.914;2023-05-24T03:52:07;100414.63;;;13.20;100.00
31911;BME280;18457;52.432;16.914;2023-05-24T03:54:38;100410.34;;;13.17;100.00
31911;BME280;18457;52.432;16.914;2023-05-24T03:57:10;100410.77;;;12.99;100.00
31911;BME280;18457;52.432;16.914;2023-05-24T03:59:42;100410.41;;;12.82;100.00
31911;BME280;18457;52.432;16.914;2023-05-24T04:02:14;100417.84;;;12.77;100.00
31911;BME280;18457;52.432;16.914;2023-05-24T04:04:46;100412.46;;;12.75;100.00
31911;BME280;18457;52.432;16.914;2023-05-24T04:07:18;100413.20;;;12.75;100.00
31911;BME280;18457;52.432;16.914;2023-05-24T04:09:53;100427.29;;;12.60;100.00
31911;BME280;18457;52.432;16.914;2023-05-24T04:12:25;100432.42;;;12.52;100.00
31911;BME280;18457;52.432;16.914;2023-05-24T04:14:57;100439.69;;;12.51;100.00
31911;BME280;18457;52.432;16.914;2023-05-24T04:17:30;100433.58;;;12.39;100.00
31911;BME280;18457;52.432;16.914;2023-05-24T04:20:06;100431.27;;;12.25;100.00
31911;BME280;18457;52.432;16.914;2023-05-24T04:22:38;100434.74;;;12.18;100.00
31911;BME280;18457;52.432;16.914;2023-05-24T04:25:10;100439.80;;;12.19;100.00
31911;BME280;18457;52.432;16.914;2023-05-24T04:27:42;100446.15;;;12.18;100.00
31911;BME280;18457;52.432;16.914;2023-05-24T04:30:18;100450.32;;;12.18;100.00
31911;BME280;18457;52.432;16.914;2023-05-24T04:32:51;100458.06;;;12.26;100.00
31911;BME280;18457;52.432;16.914;2023-05-24T04:35:23;100451.27;;;12.17;100.00
31911;BME280;18457;52.432;16.914;2023-05-24T04:37:56;100456.86;;;12.18;100.00
31911;BME280;18457;52.432;16.914;2023-05-24T04:40:29;100455.70;;;12.20;100.00
31911;BME280;18457;52.432;16.914;2023-05-24T04:43:01;100459.35;;;12.19;100.00
31911;BME280;18457;52.432;16.914;2023-05-24T04:45:33;100461.78;;;12.17;100.00
31911;BME280;18457;52.432;16.914;2023-05-24T04:48:05;100467.77;;;12.04;100.00
31911;BME280;18457;52.432;16.914;2023-05-24T04:50:37;100469.65;;;12.08;100.00
31911;BME280;18457;52.432;16.914;2023-05-24T04:53:09;100468.84;;;12.05;100.00
31911;BME280;18457;52.432;16.914;2023-05-24T04:55:42;100462.20;;;12.03;100.00
31911;BME280;18457;52.432;16.914;2023-05-24T04:58:14;100466.14;;;12.10;100.00
31911;BME280;18457;52.432;16.914;2023-05-24T05:00:46;100473.41;;;12.21;100.00
31911;BME280;18457;52.432;16.914;2023-05-24T05:03:18;100479.64;;;12.13;100.00
31911;BME280;18457;52.432;16.914;2023-05-24T05:05:50;100480.89;;;12.01;100.00
31911;BME280;18457;52.432;16.914;2023-05-24T05:08:23;100475.31;;;12.06;100.00
31911;BME280;18457;52.432;16.914;2023-05-24T05:10:54;100478.58;;;12.06;100.00
31911;BME280;18457;52.432;16.914;2023-05-24T05:13:27;100478.85;;;12.09;100.00
31911;BME280;18457;52.432;16.914;2023-05-24T05:15:58;100485.41;;;12.08;100.00
31911;BME280;18457;52.432;16.914;2023-05-24T05:18:31;100487.33;;;12.10;100.00
31911;BME280;18457;52.432;16.914;2023-05-24T05:21:03;100492.15;;;12.13;100.00
31911;BME280;18457;52.432;16.914;2023-05-24T05:23:35;100496.14;;;12.19;100.00
31911;BME280;18457;52.432;16.914;2023-05-24T05:26:09;100508.16;;;12.28;100.00
31911;BME280;18457;52.432;16.914;2023-05-24T05:28:41;100513.17;;;12.25;100.00
31911;BME280;18457;52.432;16.914;2023-05-24T05:31:13;100517.46;;;12.26;100.00
31911;BME280;18457;52.432;16.914;2023-05-24T05:33:45;100519.34;;;12.24;100.00
31911;BME280;18457;52.432;16.914;2023-05-24T05:36:18;100520.96;;;12.24;100.00
31911;BME280;18457;52.432;16.914;2023-05-24T05:38:50;100527.61;;;12.32;100.00
31911;BME280;18457;52.432;16.914;2023-05-24T05:41:21;100531.09;;;12.43;100.00
31911;BME280;18457;52.432;16.914;2023-05-24T05:43:53;100526.75;;;12.37;100.00
31911;BME280;18457;52.432;16.914;2023-05-24T05:46:25;100522.85;;;12.40;100.00
31911;BME280;18457;52.432;16.914;2023-05-24T05:48:57;100524.41;;;12.42;100.00
31911;BME280;18457;52.432;16.914;2023-05-24T05:51:29;100527.25;;;12.38;99.99
31911;BME280;18457;52.432;16.914;2023-05-24T05:54:01;100524.27;;;12.29;99.61
31911;BME280;18457;52.432;16.914;2023-05-24T05:56:33;100530.98;;;12.28;99.92
31911;BME280;18457;52.432;16.914;2023-05-24T05:59:10;100540.02;;;12.42;99.60
31911;BME280;18457;52.432;16.914;2023-05-24T06:01:43;100546.58;;;12.47;99.14
31911;BME280;18457;52.432;16.914;2023-05-24T06:04:16;100547.11;;;12.47;98.91
31911;BME280;18457;52.432;16.914;2023-05-24T06:06:48;100539.91;;;12.45;98.81
31911;BME280;18457;52.432;16.914;2023-05-24T06:09:21;100544.96;;;12.40;98.97
31911;BME280;18457;52.432;16.914;2023-05-24T06:11:53;100546.83;;;12.38;98.55
31911;BME280;18457;52.432;16.914;2023-05-24T06:14:25;100545.20;;;12.38;98.37
31911;BME280;18457;52.432;16.914;2023-05-24T06:16:57;100546.66;;;12.37;98.58
31911;BME280;18457;52.432;16.914;2023-05-24T06:19:28;100555.31;;;12.39;98.22
31911;BME280;18457;52.432;16.914;2023-05-24T06:22:01;100559.20;;;12.43;98.28
31911;BME280;18457;52.432;16.914;2023-05-24T06:24:32;100567.98;;;12.46;97.90
31911;BME280;18457;52.432;16.914;2023-05-24T06:27:05;100576.36;;;12.44;97.70
31911;BME280;18457;52.432;16.914;2023-05-24T06:29:35;100573.11;;;12.43;97.77
31911;BME280;18457;52.432;16.914;2023-05-24T06:32:08;100579.14;;;12.48;97.86
31911;BME280;18457;52.432;16.914;2023-05-24T06:34:39;100582.46;;;12.46;97.89
31911;BME280;18457;52.432;16.914;2023-05-24T06:37:11;100585.49;;;12.54;97.43
31911;BME280;18457;52.432;16.914;2023-05-24T06:39:45;100585.27;;;12.56;97.92
31911;BME280;18457;52.432;16.914;2023-05-24T06:42:17;100588.14;;;12.57;97.07
31911;BME280;18457;52.432;16.914;2023-05-24T06:44:49;100599.90;;;12.69;96.75
31911;BME280;18457;52.432;16.914;2023-05-24T06:47:21;100600.35;;;12.73;96.12
31911;BME280;18457;52.432;16.914;2023-05-24T06:49:52;100602.91;;;12.66;95.63
31911;BME280;18457;52.432;16.914;2023-05-24T06:52:23;100601.62;;;12.66;95.71
31911;BME280;18457;52.432;16.914;2023-05-24T06:54:55;100609.29;;;12.71;95.61
31911;BME280;18457;52.432;16.914;2023-05-24T06:57:27;100610.98;;;12.75;95.11
31911;BME280;18457;52.432;16.914;2023-05-24T06:59:59;100614.00;;;12.71;95.31
31911;BME280;18457;52.432;16.914;2023-05-24T07:02:32;100608.11;;;12.68;95.45
31911;BME280;18457;52.432;16.914;2023-05-24T07:05:04;100611.56;;;12.67;95.63
31911;BME280;18457;52.432;16.914;2023-05-24T07:07:41;100611.90;;;12.62;96.01
31911;BME280;18457;52.432;16.914;2023-05-24T07:10:13;100615.64;;;12.70;95.49
31911;BME280;18457;52.432;16.914;2023-05-24T07:12:45;100619.10;;;12.82;95.09
31911;BME280;18457;52.432;16.914;2023-05-24T07:15:17;100622.20;;;12.75;94.83
31911;BME280;18457;52.432;16.914;2023-05-24T07:17:49;100626.98;;;12.68;95.22
31911;BME280;18457;52.432;16.914;2023-05-24T07:20:21;100628.83;;;12.65;95.28
31911;BME280;18457;52.432;16.914;2023-05-24T07:22:53;100631.86;;;12.92;94.82
31911;BME280;18457;52.432;16.914;2023-05-24T07:25:24;100637.09;;;13.05;93.78
31911;BME280;18457;52.432;16.914;2023-05-24T07:27:56;100635.50;;;13.04;93.43
31911;BME280;18457;52.432;16.914;2023-05-24T07:30:28;100638.70;;;13.06;92.61
31911;BME280;18457;52.432;16.914;2023-05-24T07:33:02;100640.49;;;13.00;93.10
31911;BME280;18457;52.432;16.914;2023-05-24T07:35:34;100641.59;;;13.13;93.41
31911;BME280;18457;52.432;16.914;2023-05-24T07:38:06;100647.67;;;13.22;92.91
31911;BME280;18457;52.432;16.914;2023-05-24T07:40:38;100651.73;;;13.14;93.00
31911;BME280;18457;52.432;16.914;2023-05-24T07:43:11;100651.05;;;13.06;93.52
31911;BME280;18457;52.432;16.914;2023-05-24T07:45:42;100653.25;;;13.11;93.52
31911;BME280;18457;52.432;16.914;2023-05-24T07:48:15;100653.46;;;13.22;93.14
31911;BME280;18457;52.432;16.914;2023-05-24T07:50:47;100657.16;;;13.20;92.56
31911;BME280;18457;52.432;16.914;2023-05-24T07:53:19;100660.27;;;13.19;93.31
31911;BME280;18457;52.432;16.914;2023-05-24T07:55:52;100667.23;;;13.29;92.56
31911;BME280;18457;52.432;16.914;2023-05-24T07:58:24;100665.61;;;13.29;92.52
31911;BME280;18457;52.432;16.914;2023-05-24T08:00:57;100672.78;;;13.20;92.29
31911;BME280;18457;52.432;16.914;2023-05-24T08:03:29;100675.33;;;13.19;92.55
31911;BME280;18457;52.432;16.914;2023-05-24T08:06:00;100678.46;;;13.24;92.61
31911;BME280;18457;52.432;16.914;2023-05-24T08:08:33;100679.71;;;13.24;92.34
31911;BME280;18457;52.432;16.914;2023-05-24T08:11:05;100688.54;;;13.20;92.25
31911;BME280;18457;52.432;16.914;2023-05-24T08:13:37;100698.91;;;13.13;92.21
31911;BME280;18457;52.432;16.914;2023-05-24T08:16:08;100699.19;;;13.22;91.78
31911;BME280;18457;52.432;16.914;2023-05-24T08:18:40;100700.81;;;13.16;92.02
31911;BME280;18457;52.432;16.914;2023-05-24T08:21:12;100700.37;;;13.25;92.02
31911;BME280;18457;52.432;16.914;2023-05-24T08:23:44;100696.23;;;13.30;91.25
31911;BME280;18457;52.432;16.914;2023-05-24T08:26:16;100699.73;;;13.22;91.31
31911;BME280;18457;52.432;16.914;2023-05-24T08:28:50;100696.63;;;13.23;91.61
31911;BME280;18457;52.432;16.914;2023-05-24T08:31:22;100701.05;;;13.27;91.68
31911;BME280;18457;52.432;16.914;2023-05-24T08:33:54;100700.83;;;13.45;91.29
31911;BME280;18457;52.432;16.914;2023-05-24T08:36:27;100701.17;;;13.46;91.31
31911;BME280;18457;52.432;16.914;2023-05-24T08:38:59;100709.13;;;13.52;90.83
31911;BME280;18457;52.432;16.914;2023-05-24T08:41:31;100716.14;;;13.66;90.07
31911;BME280;18457;52.432;16.914;2023-05-24T08:44:07;100722.19;;;13.65;90.00
31911;BME280;18457;52.432;16.914;2023-05-24T08:46:39;100730.23;;;13.57;89.54
31911;BME280;18457;52.432;16.914;2023-05-24T08:49:12;100727.15;;;13.57;89.94
31911;BME280;18457;52.432;16.914;2023-05-24T08:51:45;100734.79;;;13.56;89.99
31911;BME280;18457;52.432;16.914;2023-05-24T08:54:18;100740.81;;;13.67;89.69
31911;BME280;18457;52.432;16.914;2023-05-24T08:56:51;100748.41;;;13.56;89.93
31911;BME280;18457;52.432;16.914;2023-05-24T08:59:21;100743.27;;;13.64;90.10
31911;BME280;18457;52.432;16.914;2023-05-24T09:01:55;100743.27;;;13.52;89.99
31911;BME280;18457;52.432;16.914;2023-05-24T09:04:29;100741.55;;;13.49;90.34
31911;BME280;18457;52.432;16.914;2023-05-24T09:07:01;100748.52;;;13.53;90.26
31911;BME280;18457;52.432;16.914;2023-05-24T09:09:34;100750.35;;;13.40;90.97
31911;BME280;18457;52.432;16.914;2023-05-24T09:12:20;100748.88;;;13.41;91.07
31911;BME280;18457;52.432;16.914;2023-05-24T09:14:57;100754.45;;;13.48;90.63
31911;BME280;18457;52.432;16.914;2023-05-24T09:17:27;100763.56;;;13.47;90.87
31911;BME280;18457;52.432;16.914;2023-05-24T09:20:03;100769.73;;;13.47;90.62
31911;BME280;18457;52.432;16.914;2023-05-24T09:22:41;100765.98;;;13.46;90.63
31911;BME280;18457;52.432;16.914;2023-05-24T09:25:14;100766.34;;;13.39;91.51
31911;BME280;18457;52.432;16.914;2023-05-24T09:27:50;100768.70;;;13.34;91.84
31911;BME280;18457;52.432;16.914;2023-05-24T09:30:22;100771.67;;;13.43;91.46
31911;BME280;18457;52.432;16.914;2023-05-24T09:32:59;100771.52;;;13.60;90.98
31911;BME280;18457;52.432;16.914;2023-05-24T09:35:31;100777.77;;;13.63;90.75
31911;BME280;18457;52.432;16.914;2023-05-24T09:38:03;100775.36;;;13.71;90.33
31911;BME280;18457;52.432;16.914;2023-05-24T09:40:35;100776.52;;;13.57;90.64
31911;BME280;18457;52.432;16.914;2023-05-24T09:43:08;100776.56;;;13.56;91.09
31911;BME280;18457;52.432;16.914;2023-05-24T09:45:39;100783.67;;;13.49;91.17
31911;BME280;18457;52.432;16.914;2023-05-24T09:48:13;100786.30;;;13.40;91.50
31911;BME280;18457;52.432;16.914;2023-05-24T09:50:58;100789.55;;;13.40;91.70
31911;BME280;18457;52.432;16.914;2023-05-24T09:53:31;100786.75;;;13.49;91.17
31911;BME280;18457;52.432;16.914;2023-05-24T09:56:06;100786.25;;;13.54;91.08
31911;BME280;18457;52.432;16.914;2023-05-24T09:58:39;100786.41;;;13.60;91.01
31911;BME280;18457;52.432;16.914;2023-05-24T10:01:12;100791.27;;;13.67;90.83
31911;BME280;18457;52.432;16.914;2023-05-24T10:03:54;100797.59;;;13.63;90.47
31911;BME280;18457;52.432;16.914;2023-05-24T10:06:27;100797.88;;;13.65;90.46
31911;BME280;18457;52.432;16.914;2023-05-24T10:09:02;100799.12;;;13.54;90.70
31911;BME280;18457;52.432;16.914;2023-05-24T10:11:37;100805.06;;;13.50;91.09
31911;BME280;18457;52.432;16.914;2023-05-24T10:14:10;100807.95;;;13.50;91.06
31911;BME280;18457;52.432;16.914;2023-05-24T10:16:42;100807.28;;;13.48;91.24
31911;BME280;18457;52.432;16.914;2023-05-24T10:19:15;100803.08;;;13.62;90.81
31911;BME280;18457;52.432;16.914;2023-05-24T10:21:49;100803.52;;;13.70;90.55
31911;BME280;18457;52.432;16.914;2023-05-24T10:24:24;100804.66;;;13.57;91.07
31911;BME280;18457;52.432;16.914;2023-05-24T10:26:58;100809.36;;;13.63;90.41
31911;BME280;18457;52.432;16.914;2023-05-24T10:29:40;100809.17;;;13.52;90.85
31911;BME280;18457;52.432;16.914;2023-05-24T10:32:17;100807.41;;;13.50;91.19
31911;BME280;18457;52.432;16.914;2023-05-24T10:34:50;100810.64;;;13.57;91.05
31911;BME280;18457;52.432;16.914;2023-05-24T10:37:24;100816.80;;;13.64;90.85
31911;BME280;18457;52.432;16.914;2023-05-24T10:39:58;100819.58;;;13.62;91.15
31911;BME280;18457;52.432;16.914;2023-05-24T10:42:32;100817.71;;;13.57;91.40
31911;BME280;18457;52.432;16.914;2023-05-24T10:45:30;100821.48;;;13.53;91.70
31911;BME280;18457;52.432;16.914;2023-05-24T10:48:08;100821.45;;;13.48;91.92
31911;BME280;18457;52.432;16.914;2023-05-24T10:51:03;100824.91;;;13.47;91.18
31911;BME280;18457;52.432;16.914;2023-05-24T10:53:57;100830.02;;;13.46;91.31
31911;BME280;18457;52.432;16.914;2023-05-24T10:56:29;100830.30;;;13.31;92.08
31911;BME280;18457;52.432;16.914;2023-05-24T10:59:01;100830.48;;;13.31;92.69
31911;BME280;18457;52.432;16.914;2023-05-24T11:01:36;100828.05;;;13.40;92.47
31911;BME280;18457;52.432;16.914;2023-05-24T11:04:10;100825.08;;;13.54;91.95
31911;BME280;18457;52.432;16.914;2023-05-24T11:06:54;100828.88;;;13.55;91.76
31911;BME280;18457;52.432;16.914;2023-05-24T11:09:28;100833.02;;;13.49;92.25
31911;BME280;18457;52.432;16.914;2023-05-24T11:12:03;100828.88;;;13.42;92.28
31911;BME280;18457;52.432;16.914;2023-05-24T11:14:38;100828.11;;;13.49;92.17
31911;BME280;18457;52.432;16.914;2023-05-24T11:17:10;100824.27;;;13.63;91.75
31911;BME280;18457;52.432;16.914;2023-05-24T11:19:48;100816.70;;;13.79;91.05
31911;BME280;18457;52.432;16.914;2023-05-24T11:22:23;100820.77;;;13.94;90.37
31911;BME280;18457;52.432;16.914;2023-05-24T11:24:56;100822.14;;;14.14;89.53
31911;BME280;18457;52.432;16.914;2023-05-24T11:27:33;100825.79;;;14.13;88.61
31911;BME280;18457;52.432;16.914;2023-05-24T11:30:08;100828.39;;;14.17;88.33
31911;BME280;18457;52.432;16.914;2023-05-24T11:32:46;100829.98;;;14.24;88.13
31911;BME280;18457;52.432;16.914;2023-05-24T11:35:19;100832.39;;;14.40;87.78
31911;BME280;18457;52.432;16.914;2023-05-24T11:37:53;100830.69;;;14.48;87.10
31911;BME280;18457;52.432;16.914;2023-05-24T11:40:25;100835.79;;;14.47;87.38
31911;BME280;18457;52.432;16.914;2023-05-24T11:42:58;100839.23;;;14.26;87.48
31911;BME280;18457;52.432;16.914;2023-05-24T11:45:31;100832.88;;;14.08;88.36
31911;BME280;18457;52.432;16.914;2023-05-24T11:48:06;100834.55;;;14.12;88.70
31911;BME280;18457;52.432;16.914;2023-05-24T11:50:42;100830.44;;;14.04;89.54
31911;BME280;18457;52.432;16.914;2023-05-24T11:53:20;100829.09;;;14.01;90.13
31911;BME280;18457;52.432;16.914;2023-05-24T11:55:51;100830.85;;;13.97;90.00
31911;BME280;18457;52.432;16.914;2023-05-24T11:58:35;100830.13;;;14.09;89.78
31911;BME280;18457;52.432;16.914;2023-05-24T12:01:23;100829.92;;;14.15;88.93
31911;BME280;18457;52.432;16.914;2023-05-24T12:03:55;100832.00;;;14.24;88.20
31911;BME280;18457;52.432;16.914;2023-05-24T12:06:36;100830.42;;;14.40;87.43
31911;BME280;18457;52.432;16.914;2023-05-24T12:09:10;100836.95;;;14.56;85.75
31911;BME280;18457;52.432;16.914;2023-05-24T12:11:45;100842.19;;;14.57;85.42
31911;BME280;18457;52.432;16.914;2023-05-24T12:14:19;100841.89;;;14.60;85.62
31911;BME280;18457;52.432;16.914;2023-05-24T12:16:55;100842.52;;;14.64;86.33
31911;BME280;18457;52.432;16.914;2023-05-24T12:19:33;100846.23;;;14.67;86.41
31911;BME280;18457;52.432;16.914;2023-05-24T12:22:07;100843.29;;;14.62;85.01
31911;BME280;18457;52.432;16.914;2023-05-24T12:24:39;100842.89;;;14.74;84.79
31911;BME280;18457;52.432;16.914;2023-05-24T12:27:12;100842.77;;;14.72;85.34
31911;BME280;18457;52.432;16.914;2023-05-24T12:29:44;100845.30;;;14.72;86.04
31911;BME280;18457;52.432;16.914;2023-05-24T12:32:17;100855.57;;;14.60;86.46
31911;BME280;18457;52.432;16.914;2023-05-24T12:34:50;100849.34;;;14.56;86.26
31911;BME280;18457;52.432;16.914;2023-05-24T12:37:22;100849.60;;;14.37;86.65
31911;BME280;18457;52.432;16.914;2023-05-24T12:39:54;100849.17;;;14.33;87.43
31911;BME280;18457;52.432;16.914;2023-05-24T12:42:26;100846.39;;;14.40;87.77
31911;BME280;18457;52.432;16.914;2023-05-24T12:44:58;100852.52;;;14.42;87.54
31911;BME280;18457;52.432;16.914;2023-05-24T12:47:30;100852.11;;;14.54;87.57
31911;BME280;18457;52.432;16.914;2023-05-24T12:50:03;100855.46;;;14.63;86.96
31911;BME280;18457;52.432;16.914;2023-05-24T12:52:35;100855.44;;;14.63;86.41
31911;BME280;18457;52.432;16.914;2023-05-24T12:55:08;100850.30;;;14.54;86.63
31911;BME280;18457;52.432;16.914;2023-05-24T12:57:40;100855.20;;;14.43;87.05
31911;BME280;18457;52.432;16.914;2023-05-24T13:00:14;100848.39;;;14.29;87.41
31911;BME280;18457;52.432;16.914;2023-05-24T13:02:47;100850.72;;;14.18;87.64
31911;BME280;18457;52.432;16.914;2023-05-24T13:05:19;100844.58;;;14.23;88.07
31911;BME280;18457;52.432;16.914;2023-05-24T13:07:53;100848.65;;;14.27;87.58
31911;BME280;18457;52.432;16.914;2023-05-24T13:10:25;100848.56;;;14.30;87.09